sensor_id;sensor_type;location;lat;lon;timestamp;P1;durP1;ratioP1;P2;durP2;ratioP2
7179;SDS011;3631;42.152;24.756;2023-07-29T00:02:38;5.90;;;4.78;;
7179;SDS011;3631;42.152;24.756;2023-07-29T00:05:19;5.47;;;4.45;;
7179;SDS011;3631;42.152;24.756;2023-07-29T00:08:09;5.32;;;4.50;;
7179;SDS011;3631;42.152;24.756;2023-07-29T00:11:07;5.45;;;4.45;;
7179;SDS011;3631;42.152;24.756;2023-07-29T00:14:06;4.93;;;4.53;;
7179;SDS011;3631;42.152;24.756;2023-07-29T00:16:56;8.23;;;3.88;;
7179;SDS011;3631;42.152;24.756;2023-07-29T00:19:41;6.35;;;4.13;;
7179;SDS011;3631;42.152;24.756;2023-07-29T00:22:22;5.82;;;4.25;;
7179;SDS011;3631;42.152;24.756;2023-07-29T00:25:02;7.38;;;4.47;;
7179;SDS011;3631;42.152;24.756;2023-07-29T00:27:50;9.02;;;4.50;;
7179;SDS011;3631;42.152;24.756;2023-07-29T00:30:43;4.65;;;4.22;;
7179;SDS011;3631;42.152;24.756;2023-07-29T00:33:29;5.95;;;4.07;;
7179;SDS011;3631;42.152;24.756;2023-07-29T00:36:18;5.38;;;4.18;;
7179;SDS011;3631;42.152;24.756;2023-07-29T00:39:09;5.93;;;4.35;;
7179;SDS011;3631;42.152;24.756;2023-07-29T00:42:01;4.57;;;4.28;;
7179;SDS011;3631;42.152;24.756;2023-07-29T00:44:42;4.72;;;4.30;;
7179;SDS011;3631;42.152;24.756;2023-07-29T00:47:42;4.57;;;4.25;;
7179;SDS011;3631;42.152;24.756;2023-07-29T00:50:29;4.80;;;4.28;;
7179;SDS011;3631;42.152;24.756;2023-07-29T00:53:16;7.78;;;4.70;;
7179;SDS011;3631;42.152;24.756;2023-07-29T00:56:06;5.88;;;4.28;;
7179;SDS011;3631;42.152;24.756;2023-07-29T00:58:41;4.38;;;3.97;;
7179;SDS011;3631;42.152;24.756;2023-07-29T01:01:19;10.23;;;4.22;;
7179;SDS011;3631;42.152;24.756;2023-07-29T01:04:15;9.00;;;4.35;;
7179;SDS011;3631;42.152;24.756;2023-07-29T01:07:11;4.88;;;3.58;;
7179;SDS011;3631;42.152;24.756;2023-07-29T01:10:04;4.50;;;3.60;;
7179;SDS011;3631;42.152;24.756;2023-07-29T01:12:58;5.88;;;4.10;;
7179;SDS011;3631;42.152;24.756;2023-07-29T01:15:58;5.75;;;4.68;;
7179;SDS011;3631;42.152;24.756;2023-07-29T01:18:47;7.07;;;3.83;;
7179;SDS011;3631;42.152;24.756;2023-07-29T01:21:46;7.75;;;3.92;;
7179;SDS011;3631;42.152;24.756;2023-07-29T01:24:36;4.97;;;3.70;;
7179;SDS011;3631;42.152;24.756;2023-07-29T01:27:14;5.13;;;3.63;;
7179;SDS011;3631;42.152;24.756;2023-07-29T01:29:54;3.50;;;3.30;;
7179;SDS011;3631;42.152;24.756;2023-07-29T01:32:34;4.47;;;4.05;;
7179;SDS011;3631;42.152;24.756;2023-07-29T01:35:18;4.30;;;4.00;;
7179;SDS011;3631;42.152;24.756;2023-07-29T01:38:08;4.15;;;3.88;;
7179;SDS011;3631;42.152;24.756;2023-07-29T01:41:09;4.93;;;4.35;;
7179;SDS011;3631;42.152;24.756;2023-07-29T01:44:05;7.38;;;3.80;;
7179;SDS011;3631;42.152;24.756;2023-07-29T01:46:51;4.38;;;4.07;;
7179;SDS011;3631;42.152;24.756;2023-07-29T01:49:34;7.38;;;4.40;;
7179;SDS011;3631;42.152;24.756;2023-07-29T01:52:23;4.63;;;4.07;;
7179;SDS011;3631;42.152;24.756;2023-07-29T01:55:06;6.20;;;4.38;;
7179;SDS011;3631;42.152;24.756;2023-07-29T01:58:03;5.35;;;5.05;;
7179;SDS011;3631;42.152;24.756;2023-07-29T02:00:55;6.00;;;5.50;;
7179;SDS011;3631;42.152;24.756;2023-07-29T02:03:35;6.57;;;5.10;;
7179;SDS011;3631;42.152;24.756;2023-07-29T02:06:28;6.18;;;5.57;;
7179;SDS011;3631;42.152;24.756;2023-07-29T02:09:13;5.93;;;5.32;;
7179;SDS011;3631;42.152;24.756;2023-07-29T02:12:01;6.30;;;5.80;;
7179;SDS011;3631;42.152;24.756;2023-07-29T02:14:57;5.75;;;5.35;;
7179;SDS011;3631;42.152;24.756;2023-07-29T02:17:42;6.47;;;5.95;;
7179;SDS011;3631;42.152;24.756;2023-07-29T02:20:28;7.47;;;6.88;;
7179;SDS011;3631;42.152;24.756;2023-07-29T02:23:04;6.30;;;5.80;;
7179;SDS011;3631;42.152;24.756;2023-07-29T02:25:45;6.80;;;5.78;;
7179;SDS011;3631;42.152;24.756;2023-07-29T02:28:31;6.93;;;6.18;;
7179;SDS011;3631;42.152;24.756;2023-07-29T02:31:28;6.75;;;6.18;;
7179;SDS011;3631;42.152;24.756;2023-07-29T02:34:18;9.05;;;7.68;;
7179;SDS011;3631;42.152;24.756;2023-07-29T02:37:05;7.50;;;6.22;;
7179;SDS011;3631;42.152;24.756;2023-07-29T02:39:44;6.90;;;6.28;;
7179;SDS011;3631;42.152;24.756;2023-07-29T02:42:31;6.10;;;5.50;;
7179;SDS011;3631;42.152;24.756;2023-07-29T02:45:06;6.65;;;5.68;;
7179;SDS011;3631;42.152;24.756;2023-07-29T02:47:56;6.45;;;5.70;;
7179;SDS011;3631;42.152;24.756;2023-07-29T02:50:38;6.20;;;5.53;;
7179;SDS011;3631;42.152;24.756;2023-07-29T02:53:07;7.78;;;6.15;;
7179;SDS011;3631;42.152;24.756;2023-07-29T02:55:36;6.28;;;5.78;;
7179;SDS011;3631;42.152;24.756;2023-07-29T02:58:11;5.70;;;5.20;;
7179;SDS011;3631;42.152;24.756;2023-07-29T03:00:46;5.97;;;5.47;;
7179;SDS011;3631;42.152;24.756;2023-07-29T03:03:33;7.85;;;5.80;;
7179;SDS011;3631;42.152;24.756;2023-07-29T03:06:12;5.75;;;5.22;;
7179;SDS011;3631;42.152;24.756;2023-07-29T03:08:57;6.13;;;5.60;;
7179;SDS011;3631;42.152;24.756;2023-07-29T03:11:37;5.90;;;5.30;;
7179;SDS011;3631;42.152;24.756;2023-07-29T03:14:13;6.53;;;5.85;;
7179;SDS011;3631;42.152;24.756;2023-07-29T03:16:59;8.07;;;7.13;;
7179;SDS011;3631;42.152;24.756;2023-07-29T03:19:40;6.60;;;5.97;;
7179;SDS011;3631;42.152;24.756;2023-07-29T03:22:21;6.90;;;5.60;;
7179;SDS011;3631;42.152;24.756;2023-07-29T03:25:01;7.82;;;5.80;;
7179;SDS011;3631;42.152;24.756;2023-07-29T03:27:56;7.85;;;5.50;;
7179;SDS011;3631;42.152;24.756;2023-07-29T03:30:32;6.93;;;6.05;;
7179;SDS011;3631;42.152;24.756;2023-07-29T03:33:05;7.70;;;5.65;;
7179;SDS011;3631;42.152;24.756;2023-07-29T03:35:52;7.40;;;6.00;;
7179;SDS011;3631;42.152;24.756;2023-07-29T03:38:23;7.10;;;6.47;;
7179;SDS011;3631;42.152;24.756;2023-07-29T03:41:17;6.82;;;6.00;;
7179;SDS011;3631;42.152;24.756;2023-07-29T03:44:08;8.07;;;5.82;;
7179;SDS011;3631;42.152;24.756;2023-07-29T03:46:54;7.72;;;6.03;;
7179;SDS011;3631;42.152;24.756;2023-07-29T03:49:42;6.35;;;5.75;;
7179;SDS011;3631;42.152;24.756;2023-07-29T03:55:32;6.03;;;5.53;;
7179;SDS011;3631;42.152;24.756;2023-07-29T03:58:31;5.82;;;5.30;;
7179;SDS011;3631;42.152;24.756;2023-07-29T04:01:25;6.72;;;5.80;;
7179;SDS011;3631;42.152;24.756;2023-07-29T04:04:17;5.95;;;5.45;;
7179;SDS011;3631;42.152;24.756;2023-07-29T04:07:03;6.13;;;5.53;;
7179;SDS011;3631;42.152;24.756;2023-07-29T04:09:46;5.18;;;4.60;;
7179;SDS011;3631;42.152;24.756;2023-07-29T04:12:20;6.68;;;5.13;;
7179;SDS011;3631;42.152;24.756;2023-07-29T04:14:54;5.80;;;4.85;;
7179;SDS011;3631;42.152;24.756;2023-07-29T04:17:25;5.78;;;5.38;;
7179;SDS011;3631;42.152;24.756;2023-07-29T04:19:53;6.78;;;5.72;;
7179;SDS011;3631;42.152;24.756;2023-07-29T04:22:23;13.25;;;11.85;;
7179;SDS011;3631;42.152;24.756;2023-07-29T04:24:59;6.20;;;5.60;;
7179;SDS011;3631;42.152;24.756;2023-07-29T04:27:30;9.10;;;5.38;;
7179;SDS011;3631;42.152;24.756;2023-07-29T04:30:03;6.03;;;5.43;;
7179;SDS011;3631;42.152;24.756;2023-07-29T04:32:41;5.55;;;5.10;;
7179;SDS011;3631;42.152;24.756;2023-07-29T04:35:17;7.20;;;4.82;;
7179;SDS011;3631;42.152;24.756;2023-07-29T04:37:59;6.95;;;5.00;;
7179;SDS011;3631;42.152;24.756;2023-07-29T04:40:56;5.55;;;5.05;;
7179;SDS011;3631;42.152;24.756;2023-07-29T04:43:34;6.55;;;5.57;;
7179;SDS011;3631;42.152;24.756;2023-07-29T04:46:06;6.07;;;5.57;;
7179;SDS011;3631;42.152;24.756;2023-07-29T04:48:38;6.55;;;4.88;;
7179;SDS011;3631;42.152;24.756;2023-07-29T04:51:19;5.78;;;5.28;;
7179;SDS011;3631;42.152;24.756;2023-07-29T04:54:04;6.45;;;5.43;;
7179;SDS011;3631;42.152;24.756;2023-07-29T04:56:45;6.38;;;5.50;;
7179;SDS011;3631;42.152;24.756;2023-07-29T04:59:24;7.00;;;5.15;;
7179;SDS011;3631;42.152;24.756;2023-07-29T05:01:59;6.55;;;5.55;;
7179;SDS011;3631;42.152;24.756;2023-07-29T05:04:37;5.43;;;5.00;;
7179;SDS011;3631;42.152;24.756;2023-07-29T05:07:13;5.10;;;4.70;;
7179;SDS011;3631;42.152;24.756;2023-07-29T05:09:45;6.78;;;5.05;;
7179;SDS011;3631;42.152;24.756;2023-07-29T05:12:34;5.03;;;4.53;;
7179;SDS011;3631;42.152;24.756;2023-07-29T05:15:05;7.45;;;5.07;;
7179;SDS011;3631;42.152;24.756;2023-07-29T05:17:50;5.25;;;4.85;;
7179;SDS011;3631;42.152;24.756;2023-07-29T05:20:28;5.47;;;5.00;;
7179;SDS011;3631;42.152;24.756;2023-07-29T05:23:23;9.18;;;5.82;;
7179;SDS011;3631;42.152;24.756;2023-07-29T05:26:30;5.05;;;4.60;;
7179;SDS011;3631;42.152;24.756;2023-07-29T05:32:31;5.25;;;4.78;;
7179;SDS011;3631;42.152;24.756;2023-07-29T05:35:17;10.52;;;7.05;;
7179;SDS011;3631;42.152;24.756;2023-07-29T05:37:52;9.43;;;6.80;;
7179;SDS011;3631;42.152;24.756;2023-07-29T05:40:25;9.00;;;5.80;;
7179;SDS011;3631;42.152;24.756;2023-07-29T05:42:58;8.20;;;5.50;;
7179;SDS011;3631;42.152;24.756;2023-07-29T05:45:34;11.25;;;5.97;;
7179;SDS011;3631;42.152;24.756;2023-07-29T05:48:06;9.50;;;5.93;;
7179;SDS011;3631;42.152;24.756;2023-07-29T05:50:41;7.45;;;5.03;;
7179;SDS011;3631;42.152;24.756;2023-07-29T05:53:20;8.70;;;4.72;;
7179;SDS011;3631;42.152;24.756;2023-07-29T05:56:07;7.25;;;5.00;;
7179;SDS011;3631;42.152;24.756;2023-07-29T05:59:05;7.50;;;4.78;;
7179;SDS011;3631;42.152;24.756;2023-07-29T06:02:05;6.18;;;4.78;;
7179;SDS011;3631;42.152;24.756;2023-07-29T06:04:52;4.43;;;3.83;;
7179;SDS011;3631;42.152;24.756;2023-07-29T06:07:27;4.35;;;4.00;;
7179;SDS011;3631;42.152;24.756;2023-07-29T06:10:05;5.32;;;4.35;;
7179;SDS011;3631;42.152;24.756;2023-07-29T06:12:34;7.80;;;4.75;;
7179;SDS011;3631;42.152;24.756;2023-07-29T06:15:03;5.47;;;3.80;;
7179;SDS011;3631;42.152;24.756;2023-07-29T06:17:35;10.50;;;4.55;;
7179;SDS011;3631;42.152;24.756;2023-07-29T06:20:06;7.25;;;4.15;;
7179;SDS011;3631;42.152;24.756;2023-07-29T06:22:40;6.20;;;3.95;;
7179;SDS011;3631;42.152;24.756;2023-07-29T06:25:12;9.57;;;3.67;;
7179;SDS011;3631;42.152;24.756;2023-07-29T06:27:44;6.57;;;3.92;;
7179;SDS011;3631;42.152;24.756;2023-07-29T06:30:16;4.47;;;3.85;;
7179;SDS011;3631;42.152;24.756;2023-07-29T06:32:54;4.10;;;3.63;;
7179;SDS011;3631;42.152;24.756;2023-07-29T06:35:23;4.22;;;3.63;;
7179;SDS011;3631;42.152;24.756;2023-07-29T06:37:52;8.57;;;4.05;;
7179;SDS011;3631;42.152;24.756;2023-07-29T06:40:26;4.45;;;4.07;;
7179;SDS011;3631;42.152;24.756;2023-07-29T06:42:57;4.28;;;3.88;;
7179;SDS011;3631;42.152;24.756;2023-07-29T06:45:28;4.55;;;4.00;;
7179;SDS011;3631;42.152;24.756;2023-07-29T06:48:05;4.35;;;4.05;;
7179;SDS011;3631;42.152;24.756;2023-07-29T06:50:41;4.90;;;4.38;;
7179;SDS011;3631;42.152;24.756;2023-07-29T06:53:16;6.75;;;5.68;;
7179;SDS011;3631;42.152;24.756;2023-07-29T06:55:48;5.82;;;4.25;;
7179;SDS011;3631;42.152;24.756;2023-07-29T06:58:35;7.80;;;7.15;;
7179;SDS011;3631;42.152;24.756;2023-07-29T07:01:38;4.10;;;3.90;;
7179;SDS011;3631;42.152;24.756;2023-07-29T07:04:36;5.07;;;4.63;;
7179;SDS011;3631;42.152;24.756;2023-07-29T07:07:25;4.82;;;4.13;;
7179;SDS011;3631;42.152;24.756;2023-07-29T07:10:10;7.20;;;6.53;;
7179;SDS011;3631;42.152;24.756;2023-07-29T07:12:56;7.18;;;4.55;;
7179;SDS011;3631;42.152;24.756;2023-07-29T07:15:37;4.70;;;4.13;;
7179;SDS011;3631;42.152;24.756;2023-07-29T07:18:06;6.13;;;4.50;;
7179;SDS011;3631;42.152;24.756;2023-07-29T07:20:47;5.70;;;5.07;;
7179;SDS011;3631;42.152;24.756;2023-07-29T07:23:20;7.90;;;4.13;;
7179;SDS011;3631;42.152;24.756;2023-07-29T07:26:00;5.72;;;5.18;;
7179;SDS011;3631;42.152;24.756;2023-07-29T07:28:28;6.05;;;5.05;;
7179;SDS011;3631;42.152;24.756;2023-07-29T07:30:58;4.65;;;4.40;;
7179;SDS011;3631;42.152;24.756;2023-07-29T07:33:38;4.90;;;4.43;;
7179;SDS011;3631;42.152;24.756;2023-07-29T07:36:42;6.82;;;4.45;;
7179;SDS011;3631;42.152;24.756;2023-07-29T07:39:35;9.80;;;4.45;;
7179;SDS011;3631;42.152;24.756;2023-07-29T07:42:22;10.10;;;4.30;;
7179;SDS011;3631;42.152;24.756;2023-07-29T07:45:15;4.82;;;3.78;;
7179;SDS011;3631;42.152;24.756;2023-07-29T07:48:06;4.60;;;4.20;;
7179;SDS011;3631;42.152;24.756;2023-07-29T07:51:10;6.13;;;4.40;;
7179;SDS011;3631;42.152;24.756;2023-07-29T07:54:06;10.55;;;4.35;;
7179;SDS011;3631;42.152;24.756;2023-07-29T07:56:52;4.78;;;4.03;;
7179;SDS011;3631;42.152;24.756;2023-07-29T07:59:44;4.95;;;4.35;;
7179;SDS011;3631;42.152;24.756;2023-07-29T08:02:43;4.53;;;4.15;;
7179;SDS011;3631;42.152;24.756;2023-07-29T08:05:28;5.90;;;4.13;;
7179;SDS011;3631;42.152;24.756;2023-07-29T08:08:22;7.53;;;4.60;;
7179;SDS011;3631;42.152;24.756;2023-07-29T08:11:10;8.27;;;5.10;;
7179;SDS011;3631;42.152;24.756;2023-07-29T08:13:57;7.43;;;4.72;;
7179;SDS011;3631;42.152;24.756;2023-07-29T08:17:00;4.78;;;4.38;;
7179;SDS011;3631;42.152;24.756;2023-07-29T08:19:48;4.25;;;3.85;;
7179;SDS011;3631;42.152;24.756;2023-07-29T08:22:39;4.55;;;4.15;;
7179;SDS011;3631;42.152;24.756;2023-07-29T08:25:35;4.20;;;3.90;;
7179;SDS011;3631;42.152;24.756;2023-07-29T08:28:51;4.05;;;3.75;;
7179;SDS011;3631;42.152;24.756;2023-07-29T08:32:04;4.90;;;4.50;;
7179;SDS011;3631;42.152;24.756;2023-07-29T08:34:54;4.50;;;3.72;;
7179;SDS011;3631;42.152;24.756;2023-07-29T08:37:46;4.10;;;3.80;;
7179;SDS011;3631;42.152;24.756;2023-07-29T08:40:33;4.57;;;4.28;;
7179;SDS011;3631;42.152;24.756;2023-07-29T08:43:50;6.38;;;5.35;;
7179;SDS011;3631;42.152;24.756;2023-07-29T08:46:46;4.15;;;3.85;;
7179;SDS011;3631;42.152;24.756;2023-07-29T08:49:50;4.45;;;4.15;;
7179;SDS011;3631;42.152;24.756;2023-07-29T08:52:51;4.80;;;4.47;;
7179;SDS011;3631;42.152;24.756;2023-07-29T08:55:44;4.70;;;4.10;;
7179;SDS011;3631;42.152;24.756;2023-07-29T08:58:39;8.75;;;4.25;;
7179;SDS011;3631;42.152;24.756;2023-07-29T09:01:38;10.80;;;4.40;;
7179;SDS011;3631;42.152;24.756;2023-07-29T09:04:20;4.25;;;3.95;;
7179;SDS011;3631;42.152;24.756;2023-07-29T09:07:22;6.05;;;4.30;;
7179;SDS011;3631;42.152;24.756;2023-07-29T09:10:11;6.13;;;4.32;;
7179;SDS011;3631;42.152;24.756;2023-07-29T09:13:11;4.80;;;4.50;;
7179;SDS011;3631;42.152;24.756;2023-07-29T09:16:06;5.97;;;4.30;;
7179;SDS011;3631;42.152;24.756;2023-07-29T09:18:55;4.95;;;4.10;;
7179;SDS011;3631;42.152;24.756;2023-07-29T09:21:51;4.80;;;3.75;;
7179;SDS011;3631;42.152;24.756;2023-07-29T09:24:41;3.90;;;3.60;;
7179;SDS011;3631;42.152;24.756;2023-07-29T09:27:28;4.82;;;4.13;;
7179;SDS011;3631;42.152;24.756;2023-07-29T09:30:18;4.40;;;4.03;;
7179;SDS011;3631;42.152;24.756;2023-07-29T09:33:02;3.72;;;3.53;;
7179;SDS011;3631;42.152;24.756;2023-07-29T09:35:48;6.03;;;3.83;;
7179;SDS011;3631;42.152;24.756;2023-07-29T09:38:38;4.13;;;3.25;;
7179;SDS011;3631;42.152;24.756;2023-07-29T09:41:38;3.80;;;3.55;;
7179;SDS011;3631;42.152;24.756;2023-07-29T09:44:38;4.07;;;3.30;;
7179;SDS011;3631;42.152;24.756;2023-07-29T09:47:27;7.00;;;3.60;;
7179;SDS011;3631;42.152;24.756;2023-07-29T09:50:21;4.38;;;4.07;;
7179;SDS011;3631;42.152;24.756;2023-07-29T09:53:13;3.75;;;3.42;;
7179;SDS011;3631;42.152;24.756;2023-07-29T09:56:04;3.45;;;3.15;;
7179;SDS011;3631;42.152;24.756;2023-07-29T09:58:55;4.75;;;3.40;;
7179;SDS011;3631;42.152;24.756;2023-07-29T10:01:29;4.40;;;3.22;;
7179;SDS011;3631;42.152;24.756;2023-07-29T10:04:16;4.18;;;3.90;;
7179;SDS011;3631;42.152;24.756;2023-07-29T10:07:09;3.70;;;3.40;;
7179;SDS011;3631;42.152;24.756;2023-07-29T10:09:44;5.35;;;3.67;;
7179;SDS011;3631;42.152;24.756;2023-07-29T10:12:29;4.20;;;4.00;;
7179;SDS011;3631;42.152;24.756;2023-07-29T10:15:02;4.40;;;4.10;;
7179;SDS011;3631;42.152;24.756;2023-07-29T10:17:39;4.07;;;3.70;;
7179;SDS011;3631;42.152;24.756;2023-07-29T10:20:11;4.28;;;3.97;;
7179;SDS011;3631;42.152;24.756;2023-07-29T10:22:58;3.95;;;3.55;;
7179;SDS011;3631;42.152;24.756;2023-07-29T10:25:54;5.70;;;4.18;;
7179;SDS011;3631;42.152;24.756;2023-07-29T10:28:40;4.88;;;4.57;;
7179;SDS011;3631;42.152;24.756;2023-07-29T10:31:38;5.45;;;5.05;;
7179;SDS011;3631;42.152;24.756;2023-07-29T10:34:14;5.63;;;4.88;;
7179;SDS011;3631;42.152;24.756;2023-07-29T10:37:04;4.18;;;3.97;;
7179;SDS011;3631;42.152;24.756;2023-07-29T10:40:00;4.38;;;3.97;;
7179;SDS011;3631;42.152;24.756;2023-07-29T10:45:40;5.00;;;3.50;;
7179;SDS011;3631;42.152;24.756;2023-07-29T10:51:30;3.97;;;3.72;;
7179;SDS011;3631;42.152;24.756;2023-07-29T10:54:03;4.00;;;3.63;;
7179;SDS011;3631;42.152;24.756;2023-07-29T10:56:47;4.70;;;4.30;;
7179;SDS011;3631;42.152;24.756;2023-07-29T10:59:32;4.18;;;3.92;;
7179;SDS011;3631;42.152;24.756;2023-07-29T11:02:06;4.22;;;3.92;;
7179;SDS011;3631;42.152;24.756;2023-07-29T11:04:52;3.90;;;3.60;;
7179;SDS011;3631;42.152;24.756;2023-07-29T11:07:25;3.42;;;3.22;;
7179;SDS011;3631;42.152;24.756;2023-07-29T11:10:00;5.70;;;3.42;;
7179;SDS011;3631;42.152;24.756;2023-07-29T11:12:44;3.58;;;3.38;;
7179;SDS011;3631;42.152;24.756;2023-07-29T11:15:24;3.25;;;3.05;;
7179;SDS011;3631;42.152;24.756;2023-07-29T11:18:02;3.45;;;3.25;;
7179;SDS011;3631;42.152;24.756;2023-07-29T11:20:44;4.10;;;3.67;;
7179;SDS011;3631;42.152;24.756;2023-07-29T11:23:18;3.38;;;3.25;;
7179;SDS011;3631;42.152;24.756;2023-07-29T11:26:03;3.60;;;3.30;;
7179;SDS011;3631;42.152;24.756;2023-07-29T11:28:45;4.72;;;2.92;;
7179;SDS011;3631;42.152;24.756;2023-07-29T11:31:17;3.67;;;3.40;;
7179;SDS011;3631;42.152;24.756;2023-07-29T11:33:47;3.70;;;3.50;;
7179;SDS011;3631;42.152;24.756;2023-07-29T11:36:33;3.22;;;3.13;;
7179;SDS011;3631;42.152;24.756;2023-07-29T11:39:21;3.50;;;3.30;;
7179;SDS011;3631;42.152;24.756;2023-07-29T11:42:01;3.60;;;3.40;;
7179;SDS011;3631;42.152;24.756;2023-07-29T11:44:37;3.08;;;2.72;;
7179;SDS011;3631;42.152;24.756;2023-07-29T11:47:11;3.33;;;3.13;;
7179;SDS011;3631;42.152;24.756;2023-07-29T11:49:43;3.65;;;3.05;;
7179;SDS011;3631;42.152;24.756;2023-07-29T11:52:21;3.65;;;2.92;;
7179;SDS011;3631;42.152;24.756;2023-07-29T11:55:03;4.28;;;3.95;;
7179;SDS011;3631;42.152;24.756;2023-07-29T11:57:42;3.05;;;2.92;;
7179;SDS011;3631;42.152;24.756;2023-07-29T12:00:33;3.25;;;3.08;;
7179;SDS011;3631;42.152;24.756;2023-07-29T12:03:05;3.67;;;3.05;;
7179;SDS011;3631;42.152;24.756;2023-07-29T12:05:43;3.20;;;3.00;;
7179;SDS011;3631;42.152;24.756;2023-07-29T12:08:24;3.22;;;3.03;;
7179;SDS011;3631;42.152;24.756;2023-07-29T12:10:58;4.28;;;2.55;;
7179;SDS011;3631;42.152;24.756;2023-07-29T12:13:34;3.08;;;2.88;;
7179;SDS011;3631;42.152;24.756;2023-07-29T12:16:15;5.28;;;2.55;;
7179;SDS011;3631;42.152;24.756;2023-07-29T12:18:55;3.08;;;2.88;;
7179;SDS011;3631;42.152;24.756;2023-07-29T12:21:30;2.70;;;2.60;;
7179;SDS011;3631;42.152;24.756;2023-07-29T12:24:01;2.60;;;2.50;;
7179;SDS011;3631;42.152;24.756;2023-07-29T12:26:29;3.13;;;2.92;;
7179;SDS011;3631;42.152;24.756;2023-07-29T12:29:11;2.80;;;2.60;;
7179;SDS011;3631;42.152;24.756;2023-07-29T12:31:48;5.00;;;2.30;;
7179;SDS011;3631;42.152;24.756;2023-07-29T12:34:26;2.15;;;2.05;;
7179;SDS011;3631;42.152;24.756;2023-07-29T12:36:56;2.45;;;2.35;;
7179;SDS011;3631;42.152;24.756;2023-07-29T12:39:27;4.28;;;2.15;;
7179;SDS011;3631;42.152;24.756;2023-07-29T12:41:56;2.88;;;2.53;;
7179;SDS011;3631;42.152;24.756;2023-07-29T12:44:38;3.00;;;2.17;;
7179;SDS011;3631;42.152;24.756;2023-07-29T12:47:38;2.10;;;2.00;;
7179;SDS011;3631;42.152;24.756;2023-07-29T12:50:32;2.25;;;2.15;;
7179;SDS011;3631;42.152;24.756;2023-07-29T12:53:27;2.10;;;2.00;;
7179;SDS011;3631;42.152;24.756;2023-07-29T12:56:19;1.77;;;1.67;;
7179;SDS011;3631;42.152;24.756;2023-07-29T12:58:52;1.92;;;1.83;;
7179;SDS011;3631;42.152;24.756;2023-07-29T13:01:21;1.55;;;1.55;;
7179;SDS011;3631;42.152;24.756;2023-07-29T13:04:06;1.67;;;1.58;;
7179;SDS011;3631;42.152;24.756;2023-07-29T13:06:50;1.77;;;1.67;;
7179;SDS011;3631;42.152;24.756;2023-07-29T13:09:37;1.60;;;1.50;;
7179;SDS011;3631;42.152;24.756;2023-07-29T13:12:09;1.48;;;1.42;;
7179;SDS011;3631;42.152;24.756;2023-07-29T13:14:45;1.70;;;1.60;;
7179;SDS011;3631;42.152;24.756;2023-07-29T13:17:35;1.42;;;1.42;;
7179;SDS011;3631;42.152;24.756;2023-07-29T13:20:17;1.33;;;1.33;;
7179;SDS011;3631;42.152;24.756;2023-07-29T13:23:01;1.13;;;1.13;;
7179;SDS011;3631;42.152;24.756;2023-07-29T13:25:37;1.23;;;1.23;;
7179;SDS011;3631;42.152;24.756;2023-07-29T13:28:19;1.23;;;1.23;;
7179;SDS011;3631;42.152;24.756;2023-07-29T13:30:56;1.10;;;1.10;;
7179;SDS011;3631;42.152;24.756;2023-07-29T13:33:27;4.15;;;1.40;;
7179;SDS011;3631;42.152;24.756;2023-07-29T13:36:11;1.40;;;1.40;;
7179;SDS011;3631;42.152;24.756;2023-07-29T13:39:08;1.70;;;1.60;;
7179;SDS011;3631;42.152;24.756;2023-07-29T13:41:43;1.70;;;1.60;;
7179;SDS011;3631;42.152;24.756;2023-07-29T13:44:23;1.70;;;1.70;;
7179;SDS011;3631;42.152;24.756;2023-07-29T13:46:56;1.50;;;1.50;;
7179;SDS011;3631;42.152;24.756;2023-07-29T13:49:25;1.58;;;1.48;;
7179;SDS011;3631;42.152;24.756;2023-07-29T13:52:05;1.80;;;1.70;;
7179;SDS011;3631;42.152;24.756;2023-07-29T13:54:38;1.90;;;1.83;;
7179;SDS011;3631;42.152;24.756;2023-07-29T13:57:11;1.58;;;1.58;;
7179;SDS011;3631;42.152;24.756;2023-07-29T13:59:46;1.80;;;1.70;;
7179;SDS011;3631;42.152;24.756;2023-07-29T14:02:16;2.22;;;2.13;;
7179;SDS011;3631;42.152;24.756;2023-07-29T14:04:50;2.13;;;1.52;;
7179;SDS011;3631;42.152;24.756;2023-07-29T14:07:29;1.70;;;1.70;;
7179;SDS011;3631;42.152;24.756;2023-07-29T14:10:07;2.45;;;1.63;;
7179;SDS011;3631;42.152;24.756;2023-07-29T14:12:45;1.88;;;1.77;;
7179;SDS011;3631;42.152;24.756;2023-07-29T14:15:15;5.00;;;4.03;;
7179;SDS011;3631;42.152;24.756;2023-07-29T14:17:47;1.92;;;1.40;;
7179;SDS011;3631;42.152;24.756;2023-07-29T14:20:20;3.03;;;2.83;;
7179;SDS011;3631;42.152;24.756;2023-07-29T14:22:52;1.50;;;1.50;;
7179;SDS011;3631;42.152;24.756;2023-07-29T14:25:30;3.75;;;3.45;;
7179;SDS011;3631;42.152;24.756;2023-07-29T14:28:06;2.65;;;1.83;;
7179;SDS011;3631;42.152;24.756;2023-07-29T14:30:38;1.52;;;1.50;;
7179;SDS011;3631;42.152;24.756;2023-07-29T14:33:19;3.95;;;3.75;;
7179;SDS011;3631;42.152;24.756;2023-07-29T14:36:00;3.35;;;2.70;;
7179;SDS011;3631;42.152;24.756;2023-07-29T14:38:31;2.30;;;1.65;;
7179;SDS011;3631;42.152;24.756;2023-07-29T14:41:15;1.48;;;1.45;;
7179;SDS011;3631;42.152;24.756;2023-07-29T14:43:56;1.80;;;1.70;;
7179;SDS011;3631;42.152;24.756;2023-07-29T14:46:30;1.90;;;1.80;;
7179;SDS011;3631;42.152;24.756;2023-07-29T14:49:02;2.58;;;2.35;;
7179;SDS011;3631;42.152;24.756;2023-07-29T14:51:45;2.15;;;2.05;;
7179;SDS011;3631;42.152;24.756;2023-07-29T14:54:25;1.70;;;1.60;;
7179;SDS011;3631;42.152;24.756;2023-07-29T14:57:00;2.20;;;2.10;;
7179;SDS011;3631;42.152;24.756;2023-07-29T14:59:41;2.35;;;2.15;;
7179;SDS011;3631;42.152;24.756;2023-07-29T15:02:34;5.25;;;4.93;;
7179;SDS011;3631;42.152;24.756;2023-07-29T15:05:30;4.78;;;4.18;;
7179;SDS011;3631;42.152;24.756;2023-07-29T15:08:17;2.38;;;1.75;;
7179;SDS011;3631;42.152;24.756;2023-07-29T15:10:58;6.75;;;6.35;;
7179;SDS011;3631;42.152;24.756;2023-07-29T15:13:27;3.90;;;3.70;;
7179;SDS011;3631;42.152;24.756;2023-07-29T15:15:59;2.42;;;2.33;;
7179;SDS011;3631;42.152;24.756;2023-07-29T15:18:32;1.80;;;1.70;;
7179;SDS011;3631;42.152;24.756;2023-07-29T15:21:03;1.58;;;1.58;;
7179;SDS011;3631;42.152;24.756;2023-07-29T15:23:34;2.03;;;1.92;;
7179;SDS011;3631;42.152;24.756;2023-07-29T15:26:09;7.80;;;7.05;;
7179;SDS011;3631;42.152;24.756;2023-07-29T15:28:40;4.43;;;4.03;;
7179;SDS011;3631;42.152;24.756;2023-07-29T15:31:20;3.90;;;3.60;;
7179;SDS011;3631;42.152;24.756;2023-07-29T15:33:54;4.32;;;4.03;;
7179;SDS011;3631;42.152;24.756;2023-07-29T15:36:26;2.40;;;2.30;;
7179;SDS011;3631;42.152;24.756;2023-07-29T15:39:02;14.70;;;13.30;;
7179;SDS011;3631;42.152;24.756;2023-07-29T15:41:38;5.10;;;4.70;;
7179;SDS011;3631;42.152;24.756;2023-07-29T15:44:10;7.70;;;7.13;;
7179;SDS011;3631;42.152;24.756;2023-07-29T15:46:43;4.07;;;3.88;;
7179;SDS011;3631;42.152;24.756;2023-07-29T15:49:26;4.72;;;4.22;;
7179;SDS011;3631;42.152;24.756;2023-07-29T15:52:17;5.05;;;4.70;;
7179;SDS011;3631;42.152;24.756;2023-07-29T15:54:53;2.83;;;2.72;;
7179;SDS011;3631;42.152;24.756;2023-07-29T15:57:38;2.53;;;2.33;;
7179;SDS011;3631;42.152;24.756;2023-07-29T16:00:22;2.33;;;2.22;;
7179;SDS011;3631;42.152;24.756;2023-07-29T16:03:04;3.35;;;3.13;;
7179;SDS011;3631;42.152;24.756;2023-07-29T16:05:39;2.45;;;2.33;;
7179;SDS011;3631;42.152;24.756;2023-07-29T16:08:14;8.27;;;4.43;;
7179;SDS011;3631;42.152;24.756;2023-07-29T16:10:58;3.20;;;2.90;;
7179;SDS011;3631;42.152;24.756;2023-07-29T16:13:32;3.47;;;2.88;;
7179;SDS011;3631;42.152;24.756;2023-07-29T16:16:03;2.30;;;2.10;;
7179;SDS011;3631;42.152;24.756;2023-07-29T16:18:33;2.50;;;2.20;;
7179;SDS011;3631;42.152;24.756;2023-07-29T16:21:10;2.20;;;2.10;;
7179;SDS011;3631;42.152;24.756;2023-07-29T16:23:43;2.50;;;2.40;;
7179;SDS011;3631;42.152;24.756;2023-07-29T16:26:18;6.30;;;3.25;;
7179;SDS011;3631;42.152;24.756;2023-07-29T16:28:56;5.40;;;2.92;;
7179;SDS011;3631;42.152;24.756;2023-07-29T16:31:34;4.20;;;2.47;;
7179;SDS011;3631;42.152;24.756;2023-07-29T16:34:06;6.05;;;3.42;;
7179;SDS011;3631;42.152;24.756;2023-07-29T16:36:49;3.70;;;2.97;;
7179;SDS011;3631;42.152;24.756;2023-07-29T16:39:31;2.97;;;2.78;;
7179;SDS011;3631;42.152;24.756;2023-07-29T16:42:07;4.47;;;2.55;;
7179;SDS011;3631;42.152;24.756;2023-07-29T16:44:40;6.50;;;2.60;;
7179;SDS011;3631;42.152;24.756;2023-07-29T16:47:12;6.63;;;2.80;;